sensor_id;sensor_type;location;lat;lon;timestamp;P1;durP1;ratioP1;P2;durP2;ratioP2
54145;SDS011;40052;49.422;7.738;2022-08-16T00:00:24;6.13;;;5.00;;
54145;SDS011;40052;49.422;7.738;2022-08-16T00:02:51;7.15;;;5.00;;
54145;SDS011;40052;49.422;7.738;2022-08-16T00:05:18;5.10;;;4.55;;
54145;SDS011;40052;49.422;7.738;2022-08-16T00:07:49;6.60;;;5.20;;
54145;SDS011;40052;49.422;7.738;2022-08-16T00:10:15;6.00;;;5.40;;
54145;SDS011;40052;49.422;7.738;2022-08-16T00:12:42;6.57;;;5.72;;
54145;SDS011;40052;49.422;7.738;2022-08-16T00:15:10;6.43;;;5.20;;
54145;SDS011;40052;49.422;7.738;2022-08-16T00:17:38;6.13;;;5.50;;
54145;SDS011;40052;49.422;7.738;2022-08-16T00:20:07;6.43;;;5.32;;
54145;SDS011;40052;49.422;7.738;2022-08-16T00:22:33;7.88;;;7.07;;
54145;SDS011;40052;49.422;7.738;2022-08-16T00:24:59;6.38;;;5.50;;
54145;SDS011;40052;49.422;7.738;2022-08-16T00:27:25;7.82;;;5.07;;
54145;SDS011;40052;49.422;7.738;2022-08-16T00:29:50;10.43;;;5.18;;
54145;SDS011;40052;49.422;7.738;2022-08-16T00:32:16;7.55;;;5.22;;
54145;SDS011;40052;49.422;7.738;2022-08-16T00:34:45;6.35;;;5.10;;
54145;SDS011;40052;49.422;7.738;2022-08-16T00:37:11;6.85;;;4.90;;
54145;SDS011;40052;49.422;7.738;2022-08-16T00:39:38;5.88;;;5.07;;
54145;SDS011;40052;49.422;7.738;2022-08-16T00:42:06;6.53;;;5.60;;
54145;SDS011;40052;49.422;7.738;2022-08-16T00:44:31;7.65;;;5.57;;
54145;SDS011;40052;49.422;7.738;2022-08-16T00:47:00;6.15;;;5.50;;
54145;SDS011;40052;49.422;7.738;2022-08-16T00:49:30;7.43;;;5.68;;
54145;SDS011;40052;49.422;7.738;2022-08-16T00:51:59;8.02;;;5.22;;
54145;SDS011;40052;49.422;7.738;2022-08-16T00:54:29;9.18;;;5.60;;
54145;SDS011;40052;49.422;7.738;2022-08-16T00:56:57;6.93;;;5.78;;
54145;SDS011;40052;49.422;7.738;2022-08-16T00:59:30;6.15;;;5.40;;
54145;SDS011;40052;49.422;7.738;2022-08-16T01:02:01;7.28;;;5.45;;
54145;SDS011;40052;49.422;7.738;2022-08-16T01:04:32;7.32;;;5.75;;
54145;SDS011;40052;49.422;7.738;2022-08-16T01:06:59;7.13;;;5.90;;
54145;SDS011;40052;49.422;7.738;2022-08-16T01:09:26;8.20;;;5.82;;
54145;SDS011;40052;49.422;7.738;2022-08-16T01:11:51;6.43;;;5.38;;
54145;SDS011;40052;49.422;7.738;2022-08-16T01:14:26;8.38;;;5.63;;
54145;SDS011;40052;49.422;7.738;2022-08-16T01:16:57;6.93;;;5.57;;
54145;SDS011;40052;49.422;7.738;2022-08-16T01:19:39;7.90;;;5.50;;
54145;SDS011;40052;49.422;7.738;2022-08-16T01:24:52;6.68;;;5.40;;
54145;SDS011;40052;49.422;7.738;2022-08-16T01:27:23;7.65;;;5.95;;
54145;SDS011;40052;49.422;7.738;2022-08-16T01:30:05;6.30;;;5.70;;
54145;SDS011;40052;49.422;7.738;2022-08-16T01:32:34;7.55;;;5.80;;
54145;SDS011;40052;49.422;7.738;2022-08-16T01:35:29;6.50;;;5.65;;
54145;SDS011;40052;49.422;7.738;2022-08-16T01:38:16;7.65;;;6.57;;
54145;SDS011;40052;49.422;7.738;2022-08-16T01:40:47;8.35;;;6.57;;
54145;SDS011;40052;49.422;7.738;2022-08-16T01:43:20;7.13;;;5.78;;
54145;SDS011;40052;49.422;7.738;2022-08-16T01:45:45;8.35;;;6.43;;
54145;SDS011;40052;49.422;7.738;2022-08-16T01:48:11;7.60;;;6.25;;
54145;SDS011;40052;49.422;7.738;2022-08-16T01:50:37;7.85;;;6.32;;
54145;SDS011;40052;49.422;7.738;2022-08-16T01:53:07;9.50;;;6.80;;
54145;SDS011;40052;49.422;7.738;2022-08-16T01:55:32;7.95;;;6.95;;
54145;SDS011;40052;49.422;7.738;2022-08-16T01:58:00;7.30;;;6.53;;
54145;SDS011;40052;49.422;7.738;2022-08-16T02:00:26;9.07;;;7.30;;
54145;SDS011;40052;49.422;7.738;2022-08-16T02:02:51;7.97;;;6.70;;
54145;SDS011;40052;49.422;7.738;2022-08-16T02:05:17;9.00;;;6.53;;
54145;SDS011;40052;49.422;7.738;2022-08-16T02:07:42;7.93;;;6.78;;
54145;SDS011;40052;49.422;7.738;2022-08-16T02:10:08;9.20;;;6.93;;
54145;SDS011;40052;49.422;7.738;2022-08-16T02:12:35;10.10;;;7.22;;
54145;SDS011;40052;49.422;7.738;2022-08-16T02:15:02;8.07;;;6.07;;
54145;SDS011;40052;49.422;7.738;2022-08-16T02:17:28;10.73;;;7.20;;
54145;SDS011;40052;49.422;7.738;2022-08-16T02:19:56;9.05;;;6.55;;
54145;SDS011;40052;49.422;7.738;2022-08-16T02:22:24;8.60;;;6.95;;
54145;SDS011;40052;49.422;7.738;2022-08-16T02:24:50;9.05;;;6.88;;
54145;SDS011;40052;49.422;7.738;2022-08-16T02:27:16;8.93;;;6.88;;
54145;SDS011;40052;49.422;7.738;2022-08-16T02:29:44;9.25;;;7.00;;
54145;SDS011;40052;49.422;7.738;2022-08-16T02:32:11;10.07;;;7.07;;
54145;SDS011;40052;49.422;7.738;2022-08-16T02:34:39;7.70;;;6.78;;
54145;SDS011;40052;49.422;7.738;2022-08-16T02:37:05;11.32;;;8.05;;
54145;SDS011;40052;49.422;7.738;2022-08-16T02:39:30;7.93;;;6.97;;
54145;SDS011;40052;49.422;7.738;2022-08-16T02:41:56;9.30;;;7.30;;
54145;SDS011;40052;49.422;7.738;2022-08-16T02:44:22;8.73;;;7.65;;
54145;SDS011;40052;49.422;7.738;2022-08-16T02:46:48;9.80;;;7.63;;
54145;SDS011;40052;49.422;7.738;2022-08-16T02:49:13;9.20;;;7.38;;
54145;SDS011;40052;49.422;7.738;2022-08-16T02:51:39;8.75;;;7.20;;
54145;SDS011;40052;49.422;7.738;2022-08-16T02:54:06;8.70;;;6.47;;
54145;SDS011;40052;49.422;7.738;2022-08-16T02:56:32;9.02;;;7.50;;
54145;SDS011;40052;49.422;7.738;2022-08-16T02:58:58;8.40;;;7.50;;
54145;SDS011;40052;49.422;7.738;2022-08-16T03:01:27;10.60;;;7.57;;
54145;SDS011;40052;49.422;7.738;2022-08-16T03:03:55;9.15;;;7.20;;
54145;SDS011;40052;49.422;7.738;2022-08-16T03:06:23;10.38;;;7.65;;
54145;SDS011;40052;49.422;7.738;2022-08-16T03:08:52;10.57;;;7.40;;
54145;SDS011;40052;49.422;7.738;2022-08-16T03:11:18;9.05;;;8.13;;
54145;SDS011;40052;49.422;7.738;2022-08-16T03:13:50;9.50;;;7.28;;
54145;SDS011;40052;49.422;7.738;2022-08-16T03:16:18;10.40;;;7.03;;
54145;SDS011;40052;49.422;7.738;2022-08-16T03:18:45;11.18;;;7.50;;
54145;SDS011;40052;49.422;7.738;2022-08-16T03:21:11;10.63;;;8.20;;
54145;SDS011;40052;49.422;7.738;2022-08-16T03:23:39;10.50;;;8.38;;
54145;SDS011;40052;49.422;7.738;2022-08-16T03:26:09;9.85;;;8.40;;
54145;SDS011;40052;49.422;7.738;2022-08-16T03:28:35;9.50;;;7.45;;
54145;SDS011;40052;49.422;7.738;2022-08-16T03:31:03;8.65;;;7.72;;
54145;SDS011;40052;49.422;7.738;2022-08-16T03:33:31;11.63;;;7.85;;
54145;SDS011;40052;49.422;7.738;2022-08-16T03:35:56;11.38;;;7.50;;
54145;SDS011;40052;49.422;7.738;2022-08-16T03:38:26;12.93;;;9.20;;
54145;SDS011;40052;49.422;7.738;2022-08-16T03:40:55;9.38;;;8.27;;
54145;SDS011;40052;49.422;7.738;2022-08-16T03:43:22;11.20;;;8.57;;
54145;SDS011;40052;49.422;7.738;2022-08-16T03:45:54;11.88;;;8.27;;
54145;SDS011;40052;49.422;7.738;2022-08-16T03:48:23;10.90;;;8.77;;
54145;SDS011;40052;49.422;7.738;2022-08-16T03:50:51;11.18;;;8.95;;
54145;SDS011;40052;49.422;7.738;2022-08-16T03:53:16;10.95;;;7.90;;
54145;SDS011;40052;49.422;7.738;2022-08-16T03:55:44;13.48;;;8.30;;
54145;SDS011;40052;49.422;7.738;2022-08-16T03:58:12;10.18;;;8.07;;
54145;SDS011;40052;49.422;7.738;2022-08-16T04:00:37;11.50;;;8.05;;
54145;SDS011;40052;49.422;7.738;2022-08-16T04:03:06;9.52;;;8.48;;
54145;SDS011;40052;49.422;7.738;2022-08-16T04:05:32;9.93;;;7.75;;
54145;SDS011;40052;49.422;7.738;2022-08-16T04:08:00;10.30;;;7.97;;
54145;SDS011;40052;49.422;7.738;2022-08-16T04:10:26;9.98;;;8.50;;
54145;SDS011;40052;49.422;7.738;2022-08-16T04:12:55;9.27;;;7.57;;
54145;SDS011;40052;49.422;7.738;2022-08-16T04:15:21;10.75;;;7.45;;
54145;SDS011;40052;49.422;7.738;2022-08-16T04:17:46;10.75;;;8.10;;
54145;SDS011;40052;49.422;7.738;2022-08-16T04:20:16;12.93;;;8.35;;
54145;SDS011;40052;49.422;7.738;2022-08-16T04:22:45;10.95;;;7.65;;
54145;SDS011;40052;49.422;7.738;2022-08-16T04:25:13;8.40;;;7.30;;
54145;SDS011;40052;49.422;7.738;2022-08-16T04:27:40;9.18;;;7.28;;
54145;SDS011;40052;49.422;7.738;2022-08-16T04:30:09;8.90;;;7.65;;
54145;SDS011;40052;49.422;7.738;2022-08-16T04:32:37;9.25;;;7.53;;
54145;SDS011;40052;49.422;7.738;2022-08-16T04:35:04;10.40;;;9.02;;
54145;SDS011;40052;49.422;7.738;2022-08-16T04:37:31;10.18;;;8.13;;
54145;SDS011;40052;49.422;7.738;2022-08-16T04:39:56;10.20;;;7.75;;
54145;SDS011;40052;49.422;7.738;2022-08-16T04:42:24;9.13;;;7.03;;
54145;SDS011;40052;49.422;7.738;2022-08-16T04:44:51;8.43;;;7.20;;
54145;SDS011;40052;49.422;7.738;2022-08-16T04:47:17;13.13;;;8.75;;
54145;SDS011;40052;49.422;7.738;2022-08-16T04:49:42;10.60;;;7.97;;
54145;SDS011;40052;49.422;7.738;2022-08-16T04:52:11;10.20;;;7.65;;
54145;SDS011;40052;49.422;7.738;2022-08-16T04:54:37;9.73;;;8.07;;
54145;SDS011;40052;49.422;7.738;2022-08-16T04:57:04;10.13;;;7.85;;
54145;SDS011;40052;49.422;7.738;2022-08-16T04:59:32;9.38;;;8.10;;
54145;SDS011;40052;49.422;7.738;2022-08-16T05:01:57;9.90;;;7.82;;
54145;SDS011;40052;49.422;7.738;2022-08-16T05:04:27;9.65;;;7.88;;
54145;SDS011;40052;49.422;7.738;2022-08-16T05:06:55;9.52;;;8.52;;
54145;SDS011;40052;49.422;7.738;2022-08-16T05:09:24;10.50;;;8.32;;
54145;SDS011;40052;49.422;7.738;2022-08-16T05:11:52;12.10;;;8.32;;
54145;SDS011;40052;49.422;7.738;2022-08-16T05:14:17;14.13;;;9.68;;
54145;SDS011;40052;49.422;7.738;2022-08-16T05:16:45;11.32;;;9.27;;
54145;SDS011;40052;49.422;7.738;2022-08-16T05:19:10;11.88;;;8.55;;
54145;SDS011;40052;49.422;7.738;2022-08-16T05:21:35;10.75;;;9.07;;
54145;SDS011;40052;49.422;7.738;2022-08-16T05:24:02;12.57;;;8.68;;
54145;SDS011;40052;49.422;7.738;2022-08-16T05:26:31;13.05;;;9.50;;
54145;SDS011;40052;49.422;7.738;2022-08-16T05:28:58;11.52;;;8.63;;
54145;SDS011;40052;49.422;7.738;2022-08-16T05:31:25;9.95;;;8.63;;
54145;SDS011;40052;49.422;7.738;2022-08-16T05:33:52;10.40;;;8.55;;
54145;SDS011;40052;49.422;7.738;2022-08-16T05:36:19;11.25;;;8.13;;
54145;SDS011;40052;49.422;7.738;2022-08-16T05:38:45;11.43;;;9.10;;
54145;SDS011;40052;49.422;7.738;2022-08-16T05:41:12;11.43;;;8.50;;
54145;SDS011;40052;49.422;7.738;2022-08-16T05:43:37;12.10;;;9.00;;
54145;SDS011;40052;49.422;7.738;2022-08-16T05:46:07;12.93;;;8.30;;
54145;SDS011;40052;49.422;7.738;2022-08-16T05:48:38;11.43;;;8.98;;
54145;SDS011;40052;49.422;7.738;2022-08-16T05:51:03;14.60;;;9.82;;
54145;SDS011;40052;49.422;7.738;2022-08-16T05:53:29;12.02;;;9.18;;
54145;SDS011;40052;49.422;7.738;2022-08-16T05:55:58;11.13;;;9.27;;
54145;SDS011;40052;49.422;7.738;2022-08-16T05:58:26;11.25;;;9.55;;
54145;SDS011;40052;49.422;7.738;2022-08-16T06:00:53;12.50;;;10.18;;
54145;SDS011;40052;49.422;7.738;2022-08-16T06:03:20;15.18;;;10.35;;
54145;SDS011;40052;49.422;7.738;2022-08-16T06:05:45;12.50;;;10.25;;
54145;SDS011;40052;49.422;7.738;2022-08-16T06:08:11;13.68;;;10.45;;
54145;SDS011;40052;49.422;7.738;2022-08-16T06:10:40;12.85;;;10.18;;
54145;SDS011;40052;49.422;7.738;2022-08-16T06:13:06;12.68;;;10.32;;
54145;SDS011;40052;49.422;7.738;2022-08-16T06:15:31;13.45;;;9.50;;
54145;SDS011;40052;49.422;7.738;2022-08-16T06:17:57;15.82;;;9.13;;
54145;SDS011;40052;49.422;7.738;2022-08-16T06:20:25;13.32;;;9.13;;
54145;SDS011;40052;49.422;7.738;2022-08-16T06:22:55;11.70;;;9.20;;
54145;SDS011;40052;49.422;7.738;2022-08-16T06:25:22;11.40;;;8.55;;
54145;SDS011;40052;49.422;7.738;2022-08-16T06:27:51;10.38;;;9.23;;
54145;SDS011;40052;49.422;7.738;2022-08-16T06:30:17;13.50;;;8.70;;
54145;SDS011;40052;49.422;7.738;2022-08-16T06:32:47;10.52;;;8.27;;
54145;SDS011;40052;49.422;7.738;2022-08-16T06:35:13;10.13;;;7.65;;
54145;SDS011;40052;49.422;7.738;2022-08-16T06:37:39;9.65;;;7.68;;
54145;SDS011;40052;49.422;7.738;2022-08-16T06:40:05;19.83;;;8.77;;
54145;SDS011;40052;49.422;7.738;2022-08-16T06:42:32;8.15;;;7.32;;
54145;SDS011;40052;49.422;7.738;2022-08-16T06:45:00;8.60;;;7.40;;
54145;SDS011;40052;49.422;7.738;2022-08-16T06:47:30;10.05;;;7.70;;
54145;SDS011;40052;49.422;7.738;2022-08-16T06:49:55;8.07;;;6.95;;
54145;SDS011;40052;49.422;7.738;2022-08-16T06:52:21;10.43;;;8.40;;
54145;SDS011;40052;49.422;7.738;2022-08-16T06:54:47;11.57;;;7.65;;
54145;SDS011;40052;49.422;7.738;2022-08-16T06:57:13;10.25;;;8.48;;
54145;SDS011;40052;49.422;7.738;2022-08-16T06:59:38;9.05;;;8.15;;
54145;SDS011;40052;49.422;7.738;2022-08-16T07:02:04;10.60;;;8.20;;
54145;SDS011;40052;49.422;7.738;2022-08-16T07:04:29;13.02;;;8.50;;
54145;SDS011;40052;49.422;7.738;2022-08-16T07:06:55;10.75;;;8.25;;
54145;SDS011;40052;49.422;7.738;2022-08-16T07:09:25;12.27;;;8.15;;
54145;SDS011;40052;49.422;7.738;2022-08-16T07:11:53;9.77;;;8.77;;
54145;SDS011;40052;49.422;7.738;2022-08-16T07:14:18;9.55;;;8.45;;
54145;SDS011;40052;49.422;7.738;2022-08-16T07:16:46;9.75;;;7.63;;
54145;SDS011;40052;49.422;7.738;2022-08-16T07:19:12;8.50;;;7.65;;
54145;SDS011;40052;49.422;7.738;2022-08-16T07:21:40;10.32;;;8.40;;
54145;SDS011;40052;49.422;7.738;2022-08-16T07:24:06;9.82;;;8.07;;
54145;SDS011;40052;49.422;7.738;2022-08-16T07:26:32;10.05;;;8.20;;
54145;SDS011;40052;49.422;7.738;2022-08-16T07:28:58;8.65;;;7.75;;
54145;SDS011;40052;49.422;7.738;2022-08-16T07:31:24;8.35;;;7.15;;
54145;SDS011;40052;49.422;7.738;2022-08-16T07:33:54;9.02;;;7.57;;
54145;SDS011;40052;49.422;7.738;2022-08-16T07:36:19;9.60;;;8.20;;
54145;SDS011;40052;49.422;7.738;2022-08-16T07:38:46;8.80;;;7.43;;
54145;SDS011;40052;49.422;7.738;2022-08-16T07:41:14;10.48;;;7.47;;
54145;SDS011;40052;49.422;7.738;2022-08-16T07:43:39;7.97;;;6.95;;
54145;SDS011;40052;49.422;7.738;2022-08-16T07:46:05;11.70;;;7.80;;
54145;SDS011;40052;49.422;7.738;2022-08-16T07:48:34;8.05;;;7.10;;
54145;SDS011;40052;49.422;7.738;2022-08-16T07:50:59;8.68;;;6.95;;
54145;SDS011;40052;49.422;7.738;2022-08-16T07:53:28;8.25;;;7.40;;
54145;SDS011;40052;49.422;7.738;2022-08-16T07:56:01;8.00;;;7.20;;
54145;SDS011;40052;49.422;7.738;2022-08-16T07:58:27;8.32;;;7.43;;
54145;SDS011;40052;49.422;7.738;2022-08-16T08:00:53;8.25;;;6.90;;
54145;SDS011;40052;49.422;7.738;2022-08-16T08:03:19;10.38;;;7.15;;
54145;SDS011;40052;49.422;7.738;2022-08-16T08:05:44;10.55;;;6.82;;
54145;SDS011;40052;49.422;7.738;2022-08-16T08:08:12;8.13;;;6.97;;
54145;SDS011;40052;49.422;7.738;2022-08-16T08:10:38;11.70;;;7.43;;
54145;SDS011;40052;49.422;7.738;2022-08-16T08:13:08;9.05;;;7.28;;
54145;SDS011;40052;49.422;7.738;2022-08-16T08:15:33;10.52;;;7.57;;
54145;SDS011;40052;49.422;7.738;2022-08-16T08:17:59;8.68;;;7.78;;
54145;SDS011;40052;49.422;7.738;2022-08-16T08:20:29;8.77;;;7.82;;
54145;SDS011;40052;49.422;7.738;2022-08-16T08:22:55;10.70;;;7.38;;
54145;SDS011;40052;49.422;7.738;2022-08-16T08:25:22;7.30;;;6.45;;
54145;SDS011;40052;49.422;7.738;2022-08-16T08:27:48;9.00;;;7.32;;
54145;SDS011;40052;49.422;7.738;2022-08-16T08:30:14;8.02;;;6.90;;
54145;SDS011;40052;49.422;7.738;2022-08-16T08:32:40;9.35;;;6.70;;
54145;SDS011;40052;49.422;7.738;2022-08-16T08:35:06;8.30;;;6.85;;
54145;SDS011;40052;49.422;7.738;2022-08-16T08:37:38;7.15;;;6.45;;
54145;SDS011;40052;49.422;7.738;2022-08-16T08:40:04;9.85;;;6.10;;
54145;SDS011;40052;49.422;7.738;2022-08-16T08:42:33;7.28;;;6.57;;
54145;SDS011;40052;49.422;7.738;2022-08-16T08:44:59;8.68;;;6.38;;
54145;SDS011;40052;49.422;7.738;2022-08-16T08:47:26;7.65;;;6.05;;
54145;SDS011;40052;49.422;7.738;2022-08-16T08:49:52;8.07;;;5.90;;
54145;SDS011;40052;49.422;7.738;2022-08-16T08:52:18;9.38;;;6.15;;
54145;SDS011;40052;49.422;7.738;2022-08-16T08:54:46;7.55;;;5.75;;
54145;SDS011;40052;49.422;7.738;2022-08-16T08:57:15;10.35;;;5.55;;
54145;SDS011;40052;49.422;7.738;2022-08-16T08:59:42;7.65;;;5.78;;
54145;SDS011;40052;49.422;7.738;2022-08-16T09:02:11;6.90;;;5.80;;
54145;SDS011;40052;49.422;7.738;2022-08-16T09:04:41;7.38;;;5.53;;
54145;SDS011;40052;49.422;7.738;2022-08-16T09:07:10;6.00;;;5.40;;
54145;SDS011;40052;49.422;7.738;2022-08-16T09:09:39;6.47;;;4.93;;
54145;SDS011;40052;49.422;7.738;2022-08-16T09:12:07;5.45;;;4.95;;
54145;SDS011;40052;49.422;7.738;2022-08-16T09:14:33;7.75;;;5.25;;
54145;SDS011;40052;49.422;7.738;2022-08-16T09:17:00;8.35;;;5.10;;
54145;SDS011;40052;49.422;7.738;2022-08-16T09:19:27;5.88;;;5.05;;
54145;SDS011;40052;49.422;7.738;2022-08-16T09:21:55;8.02;;;5.20;;
54145;SDS011;40052;49.422;7.738;2022-08-16T09:24:20;6.10;;;5.50;;
54145;SDS011;40052;49.422;7.738;2022-08-16T09:26:46;6.30;;;5.50;;
54145;SDS011;40052;49.422;7.738;2022-08-16T09:29:13;6.25;;;5.55;;
54145;SDS011;40052;49.422;7.738;2022-08-16T09:31:39;7.78;;;5.20;;
54145;SDS011;40052;49.422;7.738;2022-08-16T09:34:05;5.55;;;5.05;;
54145;SDS011;40052;49.422;7.738;2022-08-16T09:36:30;5.07;;;4.57;;
54145;SDS011;40052;49.422;7.738;2022-08-16T09:38:56;7.22;;;5.13;;
54145;SDS011;40052;49.422;7.738;2022-08-16T09:41:24;5.65;;;4.97;;
54145;SDS011;40052;49.422;7.738;2022-08-16T09:43:54;6.28;;;4.53;;
54145;SDS011;40052;49.422;7.738;2022-08-16T09:46:27;5.90;;;4.47;;
54145;SDS011;40052;49.422;7.738;2022-08-16T09:48:53;5.25;;;4.75;;
54145;SDS011;40052;49.422;7.738;2022-08-16T09:51:24;5.07;;;4.57;;
54145;SDS011;40052;49.422;7.738;2022-08-16T09:53:51;6.90;;;5.25;;
54145;SDS011;40052;49.422;7.738;2022-08-16T09:56:27;4.93;;;4.43;;
54145;SDS011;40052;49.422;7.738;2022-08-16T09:58:55;5.90;;;4.53;;
54145;SDS011;40052;49.422;7.738;2022-08-16T10:01:25;5.25;;;4.75;;
54145;SDS011;40052;49.422;7.738;2022-08-16T10:03:50;6.28;;;4.30;;
54145;SDS011;40052;49.422;7.738;2022-08-16T10:06:21;4.40;;;3.50;;
54145;SDS011;40052;49.422;7.738;2022-08-16T10:08:47;5.05;;;3.60;;
54145;SDS011;40052;49.422;7.738;2022-08-16T10:11:15;4.28;;;3.53;;
54145;SDS011;40052;49.422;7.738;2022-08-16T10:13:59;4.47;;;4.07;;
54145;SDS011;40052;49.422;7.738;2022-08-16T10:16:29;4.78;;;4.10;;
54145;SDS011;40052;49.422;7.738;2022-08-16T10:18:57;3.92;;;3.42;;
54145;SDS011;40052;49.422;7.738;2022-08-16T10:21:25;4.18;;;3.35;;
54145;SDS011;40052;49.422;7.738;2022-08-16T10:23:54;3.58;;;2.80;;
54145;SDS011;40052;49.422;7.738;2022-08-16T10:26:21;3.53;;;3.22;;
54145;SDS011;40052;49.422;7.738;2022-08-16T10:28:50;5.63;;;3.60;;
54145;SDS011;40052;49.422;7.738;2022-08-16T10:31:16;5.30;;;3.88;;
54145;SDS011;40052;49.422;7.738;2022-08-16T10:33:41;6.78;;;4.50;;
54145;SDS011;40052;49.422;7.738;2022-08-16T10:36:10;4.00;;;3.60;;
54145;SDS011;40052;49.422;7.738;2022-08-16T10:38:38;5.25;;;4.10;;
54145;SDS011;40052;49.422;7.738;2022-08-16T10:41:07;5.18;;;3.78;;
54145;SDS011;40052;49.422;7.738;2022-08-16T10:43:36;4.65;;;3.80;;
54145;SDS011;40052;49.422;7.738;2022-08-16T10:46:04;6.15;;;4.10;;
54145;SDS011;40052;49.422;7.738;2022-08-16T10:48:35;5.53;;;3.60;;
54145;SDS011;40052;49.422;7.738;2022-08-16T10:51:06;6.18;;;3.85;;
54145;SDS011;40052;49.422;7.738;2022-08-16T10:53:32;4.43;;;3.80;;
54145;SDS011;40052;49.422;7.738;2022-08-16T10:56:02;5.55;;;4.05;;
54145;SDS011;40052;49.422;7.738;2022-08-16T10:58:30;4.85;;;3.63;;
54145;SDS011;40052;49.422;7.738;2022-08-16T11:00:55;5.68;;;3.67;;
54145;SDS011;40052;49.422;7.738;2022-08-16T11:03:23;9.93;;;5.93;;
54145;SDS011;40052;49.422;7.738;2022-08-16T11:05:53;22.23;;;11.27;;
54145;SDS011;40052;49.422;7.738;2022-08-16T11:08:20;21.27;;;11.35;;
54145;SDS011;40052;49.422;7.738;2022-08-16T11:10:47;10.70;;;5.80;;
54145;SDS011;40052;49.422;7.738;2022-08-16T11:13:19;6.13;;;4.10;;
54145;SDS011;40052;49.422;7.738;2022-08-16T11:15:52;5.45;;;3.97;;
54145;SDS011;40052;49.422;7.738;2022-08-16T11:18:25;5.35;;;3.97;;
54145;SDS011;40052;49.422;7.738;2022-08-16T11:20:56;6.53;;;4.10;;
54145;SDS011;40052;49.422;7.738;2022-08-16T11:23:22;4.85;;;4.13;;
54145;SDS011;40052;49.422;7.738;2022-08-16T11:25:52;4.65;;;2.97;;
54145;SDS011;40052;49.422;7.738;2022-08-16T11:28:20;3.85;;;2.88;;
54145;SDS011;40052;49.422;7.738;2022-08-16T11:30:48;6.22;;;3.33;;
54145;SDS011;40052;49.422;7.738;2022-08-16T11:33:16;5.07;;;3.03;;
54145;SDS011;40052;49.422;7.738;2022-08-16T11:35:44;5.60;;;3.25;;
54145;SDS011;40052;49.422;7.738;2022-08-16T11:38:12;3.92;;;2.70;;
54145;SDS011;40052;49.422;7.738;2022-08-16T11:40:45;4.30;;;3.90;;
54145;SDS011;40052;49.422;7.738;2022-08-16T11:43:17;4.72;;;3.53;;
54145;SDS011;40052;49.422;7.738;2022-08-16T11:45:47;6.32;;;3.20;;
54145;SDS011;40052;49.422;7.738;2022-08-16T11:48:13;7.30;;;3.60;;
54145;SDS011;40052;49.422;7.738;2022-08-16T11:50:39;4.15;;;3.03;;
54145;SDS011;40052;49.422;7.738;2022-08-16T11:53:06;4.35;;;3.00;;
54145;SDS011;40052;49.422;7.738;2022-08-16T11:55:32;3.55;;;3.10;;
54145;SDS011;40052;49.422;7.738;2022-08-16T11:58:04;3.10;;;2.80;;
54145;SDS011;40052;49.422;7.738;2022-08-16T12:00:30;4.82;;;2.60;;
54145;SDS011;40052;49.422;7.738;2022-08-16T12:02:57;5.63;;;3.22;;
54145;SDS011;40052;49.422;7.738;2022-08-16T12:05:23;3.17;;;2.88;;
54145;SDS011;40052;49.422;7.738;2022-08-16T12:07:51;3.95;;;2.38;;
54145;SDS011;40052;49.422;7.738;2022-08-16T12:10:19;4.00;;;2.78;;
54145;SDS011;40052;49.422;7.738;2022-08-16T12:12:47;3.10;;;2.80;;
54145;SDS011;40052;49.422;7.738;2022-08-16T12:15:15;3.30;;;2.40;;
54145;SDS011;40052;49.422;7.738;2022-08-16T12:17:44;4.05;;;2.60;;
54145;SDS011;40052;49.422;7.738;2022-08-16T12:20:13;2.90;;;2.60;;
54145;SDS011;40052;49.422;7.738;2022-08-16T12:22:45;3.90;;;2.60;;
54145;SDS011;40052;49.422;7.738;2022-08-16T12:25:13;3.40;;;3.00;;
54145;SDS011;40052;49.422;7.738;2022-08-16T12:27:41;3.28;;;2.97;;
54145;SDS011;40052;49.422;7.738;2022-08-16T12:30:08;3.17;;;2.80;;
54145;SDS011;40052;49.422;7.738;2022-08-16T12:32:39;3.35;;;2.83;;
54145;SDS011;40052;49.422;7.738;2022-08-16T12:35:05;3.33;;;2.90;;
54145;SDS011;40052;49.422;7.738;2022-08-16T12:37:33;2.67;;;2.47;;
54145;SDS011;40052;49.422;7.738;2022-08-16T12:39:59;4.20;;;2.70;;
54145;SDS011;40052;49.422;7.738;2022-08-16T12:42:25;2.80;;;2.60;;
54145;SDS011;40052;49.422;7.738;2022-08-16T12:44:53;3.83;;;2.95;;
54145;SDS011;40052;49.422;7.738;2022-08-16T12:47:18;3.72;;;2.90;;
54145;SDS011;40052;49.422;7.738;2022-08-16T12:50:06;3.67;;;2.90;;
54145;SDS011;40052;49.422;7.738;2022-08-16T12:52:35;3.28;;;2.97;;
54145;SDS011;40052;49.422;7.738;2022-08-16T12:55:00;4.32;;;2.92;;
54145;SDS011;40052;49.422;7.738;2022-08-16T12:57:30;4.85;;;2.80;;
54145;SDS011;40052;49.422;7.738;2022-08-16T12:59:57;4.90;;;3.10;;
54145;SDS011;40052;49.422;7.738;2022-08-16T13:02:23;4.78;;;3.00;;
54145;SDS011;40052;49.422;7.738;2022-08-16T13:04:55;3.85;;;2.85;;
54145;SDS011;40052;49.422;7.738;2022-08-16T13:07:21;3.25;;;2.83;;
54145;SDS011;40052;49.422;7.738;2022-08-16T13:09:48;5.30;;;2.75;;
54145;SDS011;40052;49.422;7.738;2022-08-16T13:12:22;3.30;;;3.00;;
54145;SDS011;40052;49.422;7.738;2022-08-16T13:14:52;4.55;;;2.90;;
54145;SDS011;40052;49.422;7.738;2022-08-16T13:17:21;3.03;;;2.83;;
54145;SDS011;40052;49.422;7.738;2022-08-16T13:19:50;3.22;;;2.95;;
54145;SDS011;40052;49.422;7.738;2022-08-16T13:22:20;4.25;;;3.03;;
54145;SDS011;40052;49.422;7.738;2022-08-16T13:24:46;3.60;;;2.90;;
54145;SDS011;40052;49.422;7.738;2022-08-16T13:27:12;3.65;;;3.00;;
54145;SDS011;40052;49.422;7.738;2022-08-16T13:29:37;3.20;;;2.90;;
54145;SDS011;40052;49.422;7.738;2022-08-16T13:32:03;3.53;;;2.95;;
54145;SDS011;40052;49.422;7.738;2022-08-16T13:34:29;4.13;;;2.78;;
54145;SDS011;40052;49.422;7.738;2022-08-16T13:36:55;3.72;;;2.85;;
54145;SDS011;40052;49.422;7.738;2022-08-16T13:39:25;3.03;;;2.45;;
54145;SDS011;40052;49.422;7.738;2022-08-16T13:41:55;4.53;;;2.67;;
54145;SDS011;40052;49.422;7.738;2022-08-16T13:44:26;6.18;;;2.92;;
54145;SDS011;40052;49.422;7.738;2022-08-16T13:46:52;3.45;;;2.70;;
54145;SDS011;40052;49.422;7.738;2022-08-16T13:49:20;3.40;;;2.55;;
54145;SDS011;40052;49.422;7.738;2022-08-16T13:51:46;4.10;;;2.70;;
54145;SDS011;40052;49.422;7.738;2022-08-16T13:54:11;3.10;;;2.80;;
54145;SDS011;40052;49.422;7.738;2022-08-16T13:56:39;3.00;;;2.42;;
54145;SDS011;40052;49.422;7.738;2022-08-16T13:59:09;3.90;;;2.22;;
54145;SDS011;40052;49.422;7.738;2022-08-16T14:01:37;3.10;;;2.60;;
54145;SDS011;40052;49.422;7.738;2022-08-16T14:04:03;2.50;;;2.30;;
54145;SDS011;40052;49.422;7.738;2022-08-16T14:06:34;2.28;;;2.08;;
54145;SDS011;40052;49.422;7.738;2022-08-16T14:09:02;2.78;;;2.58;;
54145;SDS011;40052;49.422;7.738;2022-08-16T14:11:27;3.35;;;2.60;;
54145;SDS011;40052;49.422;7.738;2022-08-16T14:13:53;3.45;;;2.30;;
54145;SDS011;40052;49.422;7.738;2022-08-16T14:16:21;2.60;;;2.40;;
54145;SDS011;40052;49.422;7.738;2022-08-16T14:18:49;2.88;;;2.50;;
54145;SDS011;40052;49.422;7.738;2022-08-16T14:21:15;2.60;;;2.35;;
54145;SDS011;40052;49.422;7.738;2022-08-16T14:23:42;3.13;;;2.38;;
54145;SDS011;40052;49.422;7.738;2022-08-16T14:26:08;3.00;;;2.50;;
54145;SDS011;40052;49.422;7.738;2022-08-16T14:28:34;2.22;;;2.03;;
54145;SDS011;40052;49.422;7.738;2022-08-16T14:30:59;1.75;;;1.63;;
54145;SDS011;40052;49.422;7.738;2022-08-16T14:33:25;2.95;;;1.95;;
54145;SDS011;40052;49.422;7.738;2022-08-16T14:35:50;2.20;;;2.00;;
54145;SDS011;40052;49.422;7.738;2022-08-16T14:38:18;4.28;;;2.10;;
54145;SDS011;40052;49.422;7.738;2022-08-16T14:40:47;3.45;;;2.05;;
54145;SDS011;40052;49.422;7.738;2022-08-16T14:43:12;4.07;;;2.05;;
54145;SDS011;40052;49.422;7.738;2022-08-16T14:45:38;3.33;;;2.22;;
54145;SDS011;40052;49.422;7.738;2022-08-16T14:48:03;2.38;;;2.17;;